Time;durP1;ratioP1;P1;durP2;ratioP2;P2;SDS_P1;SDS_P2;PMS_P1;PMS_P2;Temp;Humidity;BMP_temperature;BMP_pressure;BME280_temperature;BME280_humidity;BME280_pressure;Samples;Min_cycle;Max_cycle;Signal;HPM_P1;HPM_P2
2022/05/01 00:02:16;;;;;;;0.00;0.00;;;12.60;90.00;;;;;;4156776;28;20037;-70
2022/05/01 00:04:40;;;;;;;0.00;0.00;;;12.60;89.90;;;;;;4181916;28;20507;-70
2022/05/01 00:07:10;;;;;;;0.00;0.00;;;12.60;89.70;;;;;;4181802;28;20053;-70
2022/05/01 00:09:46;;;;;;;0.00;0.00;;;12.60;89.70;;;;;;4177613;28;20364;-70
2022/05/01 00:12:11;;;;;;;0.00;0.00;;;12.50;89.60;;;;;;4154653;28;20061;-71
2022/05/01 00:14:45;;;;;;;0.00;0.00;;;12.60;89.60;;;;;;4181855;28;20087;-70
2022/05/01 00:17:14;;;;;;;0.00;0.00;;;12.60;89.60;;;;;;4154441;28;20523;-70
2022/05/01 00:19:48;;;;;;;0.00;0.00;;;12.60;89.60;;;;;;4163245;28;20064;-70
2022/05/01 00:22:20;;;;;;;0.00;0.00;;;12.60;89.40;;;;;;4169098;28;20061;-71
2022/05/01 00:24:46;;;;;;;0.00;0.00;;;12.50;89.50;;;;;;4157332;28;20068;-71
2022/05/01 00:27:17;;;;;;;0.00;0.00;;;12.40;89.70;;;;;;4158069;28;20479;-71
2022/05/01 00:29:43;;;;;;;0.00;0.00;;;12.40;89.90;;;;;;4170339;28;20046;-70
2022/05/01 00:32:11;;;;;;;0.00;0.00;;;12.40;90.00;;;;;;4170458;28;20060;-72
2022/05/01 00:37:15;;;;;;;0.00;0.00;;;12.40;90.10;;;;;;4148615;28;20385;-71
2022/05/01 00:39:37;;;;;;;0.00;0.00;;;12.30;90.20;;;;;;4184937;28;20538;-70
2022/05/01 00:42:13;;;;;;;0.00;0.00;;;12.40;90.30;;;;;;4184861;28;20112;-71
2022/05/01 00:44:39;;;;;;;0.00;0.00;;;12.30;90.30;;;;;;4184867;28;20045;-71
2022/05/01 00:47:09;;;;;;;0.00;0.00;;;12.40;90.30;;;;;;4184813;28;20049;-69
2022/05/01 00:49:36;;;;;;;0.00;0.00;;;12.40;90.30;;;;;;4185007;28;20120;-71
2022/05/01 00:52:09;;;;;;;0.00;0.00;;;12.40;90.20;;;;;;4170759;28;20094;-71
2022/05/01 00:54:32;;;;;;;0.00;0.00;;;12.40;90.30;;;;;;4164115;28;20042;-72
2022/05/01 00:56:58;;;;;;;0.00;0.00;;;12.30;90.30;;;;;;4169925;28;20087;-71
2022/05/01 00:59:21;;;;;;;0.00;0.00;;;12.30;90.30;;;;;;4169739;28;20388;-70
2022/05/01 01:01:50;;;;;;;0.00;0.00;;;12.30;90.40;;;;;;4184545;28;20053;-73
2022/05/01 01:04:24;;;;;;;0.00;0.00;;;12.30;90.40;;;;;;4169986;28;20042;-70
2022/05/01 01:06:54;;;;;;;0.00;0.00;;;12.30;90.50;;;;;;4169805;28;20056;-70
2022/05/01 01:09:27;;;;;;;0.00;0.00;;;12.30;90.40;;;;;;4164408;28;20057;-72
2022/05/01 01:12:53;;;;;;;0.00;0.00;;;12.30;90.40;;;;;;4156172;28;20042;-70
2022/05/01 01:14:32;;;;;;;0.00;0.00;;;12.30;90.50;;;;;;4163914;28;20057;-69
2022/05/01 01:17:10;;;;;;;0.00;0.00;;;12.40;90.50;;;;;;4158308;28;20495;-72
2022/05/01 01:19:37;;;;;;;0.00;0.00;;;12.40;90.50;;;;;;4178892;28;20060;-69
2022/05/01 01:22:00;;;;;;;0.00;0.00;;;12.50;90.40;;;;;;4184364;28;20064;-71
2022/05/01 01:24:22;;;;;;;0.00;0.00;;;12.50;90.40;;;;;;4169508;28;20463;-72
2022/05/01 01:26:45;;;;;;;0.00;0.00;;;12.50;90.50;;;;;;4140159;28;20104;-71
2022/05/01 01:32:11;;;;;;;0.00;0.00;;;12.30;90.60;;;;;;4184154;28;20049;-73
2022/05/01 01:34:38;;;;;;;0.00;0.00;;;12.30;90.70;;;;;;4183250;28;20056;-71
2022/05/01 01:37:04;;;;;;;0.00;0.00;;;12.20;90.80;;;;;;4155796;28;20096;-72
2022/05/01 01:39:28;;;;;;;0.00;0.00;;;12.20;90.80;;;;;;4162683;28;20136;-74
2022/05/01 01:41:57;;;;;;;0.00;0.00;;;12.20;90.70;;;;;;4140252;28;20068;-73
2022/05/01 01:44:20;;;;;;;0.00;0.00;;;12.30;90.80;;;;;;4153745;28;20042;-71
2022/05/01 01:46:42;;;;;;;0.00;0.00;;;12.30;90.70;;;;;;4169862;28;20041;-69
2022/05/01 01:49:10;;;;;;;0.00;0.00;;;12.40;90.70;;;;;;4169350;28;20131;-70
2022/05/01 01:51:34;;;;;;;0.00;0.00;;;12.50;90.70;;;;;;4169742;28;20263;-69
2022/05/01 01:53:59;;;;;;;0.00;0.00;;;12.50;90.60;;;;;;4169419;28;20103;-70
2022/05/01 01:56:23;;;;;;;0.00;0.00;;;12.50;90.60;;;;;;4169435;28;20129;-72
2022/05/01 01:58:45;;;;;;;0.00;0.00;;;12.50;90.60;;;;;;4155455;28;20149;-70
2022/05/01 02:01:12;;;;;;;0.00;0.00;;;12.50;90.50;;;;;;4155300;28;20464;-71
2022/05/01 02:03:34;;;;;;;0.00;0.00;;;12.60;90.50;;;;;;4168919;28;20049;-73
2022/05/01 02:05:59;;;;;;;0.00;0.00;;;12.50;90.50;;;;;;4155076;28;20053;-70
2022/05/01 02:08:23;;;;;;;0.00;0.00;;;12.50;90.50;;;;;;4146376;28;20529;-71
2022/05/01 02:10:48;;;;;;;0.00;0.00;;;12.50;90.60;;;;;;4169170;28;20364;-71
2022/05/01 02:13:13;;;;;;;0.00;0.00;;;12.40;90.60;;;;;;4155439;28;20092;-72
2022/05/01 02:15:36;;;;;;;0.00;0.00;;;12.40;90.60;;;;;;4155568;28;20061;-73
2022/05/01 02:18:02;;;;;;;0.00;0.00;;;12.50;90.60;;;;;;4155557;28;20088;-71
2022/05/01 02:21:33;;;;;;;0.00;0.00;;;12.50;90.50;;;;;;4161535;28;20049;-72
2022/05/01 02:23:10;;;;;;;0.00;0.00;;;12.50;90.50;;;;;;4168939;28;20757;-70
2022/05/01 02:25:33;;;;;;;0.00;0.00;;;12.50;90.40;;;;;;4163029;28;20097;-70
2022/05/01 02:27:55;;;;;;;0.00;0.00;;;12.50;90.50;;;;;;4168604;28;20392;-72
2022/05/01 02:30:21;;;;;;;0.00;0.00;;;12.30;90.50;;;;;;4168690;28;20041;-70
2022/05/01 02:32:46;;;;;;;0.00;0.00;;;12.30;90.60;;;;;;4168935;28;20049;-72
2022/05/01 02:35:10;;;;;;;0.00;0.00;;;12.30;90.60;;;;;;4141531;28;20053;-70
2022/05/01 02:37:35;;;;;;;0.00;0.00;;;12.40;90.60;;;;;;4155221;28;20045;-71
2022/05/01 02:39:57;;;;;;;0.00;0.00;;;12.30;90.60;;;;;;4155000;28;20100;-69
2022/05/01 02:42:23;;;;;;;0.00;0.00;;;12.30;90.60;;;;;;4145896;28;20424;-72
2022/05/01 02:44:45;;;;;;;0.00;0.00;;;12.20;90.70;;;;;;4154589;28;20054;-70
2022/05/01 02:47:07;;;;;;;0.00;0.00;;;12.10;90.80;;;;;;4152010;28;20112;-71
2022/05/01 02:49:35;;;;;;;0.00;0.00;;;12.00;90.80;;;;;;4162218;28;20045;-71
2022/05/01 02:51:59;;;;;;;0.00;0.00;;;12.00;91.00;;;;;;4154690;28;20050;-70
2022/05/01 02:54:27;;;;;;;0.00;0.00;;;11.90;91.10;;;;;;4147204;28;20060;-72
2022/05/01 02:56:54;;;;;;;0.00;0.00;;;12.00;91.10;;;;;;4141185;28;20080;-70
2022/05/01 02:59:21;;;;;;;0.00;0.00;;;12.00;91.00;;;;;;4154747;28;20520;-70
2022/05/01 03:01:47;;;;;;;0.00;0.00;;;12.10;91.00;;;;;;4168349;28;20128;-72
2022/05/01 03:04:10;;;;;;;0.00;0.00;;;12.20;90.90;;;;;;4151993;28;20501;-70
2022/05/01 03:06:34;;;;;;;0.00;0.00;;;12.10;91.30;;;;;;4148532;28;20181;-70
2022/05/01 03:08:59;;;;;;;0.00;0.00;;;12.10;91.00;;;;;;4168103;28;20045;-72
2022/05/01 03:11:23;;;;;;;0.00;0.00;;;12.10;91.10;;;;;;4154320;28;20049;-72
2022/05/01 03:13:47;;;;;;;0.00;0.00;;;12.10;91.10;;;;;;4154842;28;20045;-71
2022/05/01 03:16:09;;;;;;;0.00;0.00;;;11.90;91.50;;;;;;4138696;28;20088;-69
2022/05/01 03:23:57;;;;;;;0.00;0.00;;;11.90;91.80;;;;;;4167809;28;20057;-73
2022/05/01 03:26:19;;;;;;;0.00;0.00;;;12.00;91.70;;;;;;4146974;28;20535;-70
2022/05/01 03:28:44;;;;;;;0.00;0.00;;;12.00;91.70;;;;;;4167960;28;20083;-69
2022/05/01 03:31:09;;;;;;;0.00;0.00;;;12.00;91.70;;;;;;4167767;28;20092;-71
2022/05/01 03:33:34;;;;;;;0.00;0.00;;;12.00;91.70;;;;;;4154019;28;20054;-73
2022/05/01 03:35:57;;;;;;;0.00;0.00;;;12.00;91.50;;;;;;4167857;28;20060;-69
2022/05/01 03:38:23;;;;;;;0.00;0.00;;;12.00;91.60;;;;;;4158345;28;20494;-72
2022/05/01 03:40:47;;;;;;;0.00;0.00;;;11.90;91.60;;;;;;4167587;28;20542;-71
2022/05/01 03:43:12;;;;;;;0.00;0.00;;;11.90;91.60;;;;;;4167513;28;20356;-70
2022/05/01 03:45:39;;;;;;;0.00;0.00;;;11.90;91.60;;;;;;4167812;28;20184;-70
2022/05/01 03:48:08;;;;;;;0.00;0.00;;;12.00;91.50;;;;;;4140331;28;20401;-69
2022/05/01 03:50:35;;;;;;;0.00;0.00;;;12.00;91.40;;;;;;4148348;28;20473;-70
2022/05/01 03:53:04;;;;;;;0.00;0.00;;;12.00;91.30;;;;;;4167851;28;20084;-70
2022/05/01 03:55:28;;;;;;;0.00;0.00;;;12.00;91.20;;;;;;4167449;28;20056;-71
2022/05/01 03:57:52;;;;;;;0.00;0.00;;;11.90;91.30;;;;;;4167457;28;20048;-70
2022/05/01 04:00:20;;;;;;;0.00;0.00;;;11.80;91.40;;;;;;4137741;28;20057;-71
2022/05/01 04:02:43;;;;;;;0.00;0.00;;;11.70;91.50;;;;;;4137335;28;20080;-71
2022/05/01 04:05:05;;;;;;;0.00;0.00;;;11.70;91.60;;;;;;4150932;28;20081;-71
2022/05/01 04:07:27;;;;;;;0.00;0.00;;;11.50;91.70;;;;;;4150976;28;20049;-70
2022/05/01 04:09:49;;;;;;;0.00;0.00;;;11.60;92.00;;;;;;4151047;28;20061;-69
2022/05/01 04:12:14;;;;;;;0.00;0.00;;;11.60;91.80;;;;;;4150980;28;20049;-70
2022/05/01 04:14:36;;;;;;;0.00;0.00;;;11.60;91.90;;;;;;4150702;28;20107;-73
2022/05/01 04:17:05;;;;;;;0.00;0.00;;;11.60;91.90;;;;;;4137756;28;20453;-73
2022/05/01 04:19:28;;;;;;;0.00;0.00;;;11.60;91.90;;;;;;4150924;28;20613;-73
2022/05/01 04:21:53;;;;;;;0.00;0.00;;;11.60;92.00;;;;;;4137444;28;20046;-72
2022/05/01 04:24:20;;;;;;;0.00;0.00;;;11.60;91.90;;;;;;4150735;28;20050;-73
2022/05/01 04:26:47;;;;;;;0.00;0.00;;;11.70;91.90;;;;;;4137810;28;20100;-71
2022/05/01 04:31:51;;;;;;;0.00;0.00;;;11.70;91.80;;;;;;4150682;28;20084;-75
2022/05/01 04:34:16;;;;;;;0.00;0.00;;;11.70;91.90;;;;;;4164589;28;20140;-74
2022/05/01 04:36:40;;;;;;;0.00;0.00;;;11.80;91.80;;;;;;4150604;28;20050;-73
2022/05/01 04:39:04;;;;;;;0.00;0.00;;;11.90;91.70;;;;;;4150672;28;20089;-73
2022/05/01 04:41:29;;;;;;;0.00;0.00;;;11.80;91.70;;;;;;4150716;28;20061;-72
2022/05/01 04:43:56;;;;;;;0.00;0.00;;;11.80;91.70;;;;;;4137070;28;20543;-71
2022/05/01 04:46:21;;;;;;;0.00;0.00;;;11.80;91.70;;;;;;4150228;28;20056;-74
2022/05/01 04:48:45;;;;;;;0.00;0.00;;;11.60;91.90;;;;;;4136827;28;20066;-72
2022/05/01 04:51:10;;;;;;;0.00;0.00;;;11.60;92.00;;;;;;4163879;28;20452;-75
2022/05/01 04:53:35;;;;;;;0.00;0.00;;;11.60;92.00;;;;;;4136493;28;20058;-74
2022/05/01 04:57:04;;;;;;;0.00;0.00;;;11.60;92.10;;;;;;4150532;28;20096;-74
2022/05/01 04:58:41;;;;;;;0.00;0.00;;;11.60;92.00;;;;;;4154793;28;20104;-72
2022/05/01 05:01:08;;;;;;;0.00;0.00;;;11.60;91.90;;;;;;4153514;28;20049;-76
2022/05/01 05:03:32;;;;;;;0.00;0.00;;;11.50;92.00;;;;;;4150877;28;20531;-74
2022/05/01 05:05:59;;;;;;;0.00;0.00;;;11.40;92.20;;;;;;4150968;28;20066;-76
2022/05/01 05:11:01;;;;;;;0.00;0.00;;;11.30;92.50;;;;;;4168670;28;20041;-74
2022/05/01 05:13:27;;;;;;;0.00;0.00;;;11.40;92.30;;;;;;4157045;28;20046;-73
2022/05/01 05:15:58;;;;;;;0.00;0.00;;;11.40;92.20;;;;;;4170210;28;20046;-74
2022/05/01 05:18:21;;;;;;;0.00;0.00;;;11.40;92.20;;;;;;4169826;28;20464;-75
2022/05/01 05:20:48;;;;;;;0.00;0.00;;;11.20;92.50;;;;;;4170641;28;20079;-77
2022/05/01 05:23:12;;;;;;;0.00;0.00;;;11.30;92.50;;;;;;4156454;28;20037;-76
2022/05/01 05:25:34;;;;;;;0.00;0.00;;;11.30;92.30;;;;;;4162146;28;20064;-72
2022/05/01 05:28:00;;;;;;;0.00;0.00;;;11.10;92.60;;;;;;4170935;28;20048;-72
2022/05/01 05:30:22;;;;;;;0.00;0.00;;;11.10;92.60;;;;;;4182633;28;20519;-73
2022/05/01 05:32:44;;;;;;;0.00;0.00;;;11.10;92.80;;;;;;4163105;28;20396;-74
2022/05/01 05:35:07;;;;;;;0.00;0.00;;;11.10;92.50;;;;;;4161438;28;20057;-74
2022/05/01 05:37:31;;;;;;;0.00;0.00;;;11.10;92.50;;;;;;4155894;28;20679;-72
2022/05/01 05:39:55;;;;;;;0.00;0.00;;;11.20;92.50;;;;;;4169972;28;20041;-73
2022/05/01 05:42:22;;;;;;;0.00;0.00;;;11.10;92.50;;;;;;4162186;28;20419;-72
2022/05/01 05:44:44;;;;;;;0.00;0.00;;;11.00;92.60;;;;;;4155927;28;20468;-72
2022/05/01 05:47:06;;;;;;;0.00;0.00;;;10.80;93.00;;;;;;4169258;28;20119;-73
2022/05/01 05:49:33;;;;;;;0.00;0.00;;;10.80;93.40;;;;;;4154490;28;20049;-71
2022/05/01 05:51:55;;;;;;;0.00;0.00;;;10.90;93.20;;;;;;4169120;28;20037;-72
2022/05/01 05:54:20;;;;;;;0.00;0.00;;;11.00;93.10;;;;;;4147841;28;20042;-73
2022/05/01 05:56:46;;;;;;;0.00;0.00;;;11.00;93.20;;;;;;4182895;28;20080;-72
2022/05/01 05:59:08;;;;;;;0.00;0.00;;;11.00;93.20;;;;;;4140152;28;20088;-74
2022/05/01 06:01:32;;;;;;;0.00;0.00;;;11.10;93.10;;;;;;4157733;28;20038;-72
2022/05/01 06:04:00;;;;;;;0.00;0.00;;;11.10;93.00;;;;;;4168993;28;20079;-73
2022/05/01 06:06:24;;;;;;;0.00;0.00;;;11.10;93.20;;;;;;4168857;28;20041;-71
2022/05/01 06:08:51;;;;;;;0.00;0.00;;;11.30;93.10;;;;;;4155020;28;20054;-73
2022/05/01 06:11:13;;;;;;;0.00;0.00;;;11.50;92.90;;;;;;4169325;28;20620;-75
2022/05/01 06:13:37;;;;;;;0.00;0.00;;;11.50;92.70;;;;;;4155329;28;20068;-73
2022/05/01 06:16:02;;;;;;;0.00;0.00;;;11.60;92.60;;;;;;4169030;28;20083;-72
2022/05/01 06:18:27;;;;;;;0.00;0.00;;;11.70;92.50;;;;;;4155049;28;20112;-73
2022/05/01 06:20:50;;;;;;;0.00;0.00;;;11.80;92.30;;;;;;4153891;28;20147;-72
2022/05/01 06:23:17;;;;;;;0.00;0.00;;;11.80;92.10;;;;;;4167904;28;20061;-71
2022/05/01 06:25:43;;;;;;;0.00;0.00;;;11.80;92.10;;;;;;4154470;28;20393;-73
2022/05/01 06:28:05;;;;;;;0.00;0.00;;;11.90;92.10;;;;;;4168413;28;20041;-73
2022/05/01 06:30:30;;;;;;;0.00;0.00;;;11.90;92.00;;;;;;4167740;28;20048;-75
2022/05/01 06:32:57;;;;;;;0.00;0.00;;;11.90;92.10;;;;;;4168617;28;20076;-73
2022/05/01 06:35:20;;;;;;;0.00;0.00;;;12.00;91.90;;;;;;4168230;28;20064;-71
2022/05/01 06:37:49;;;;;;;0.00;0.00;;;12.00;91.90;;;;;;4178836;28;20061;-73
2022/05/01 06:40:14;;;;;;;0.00;0.00;;;12.10;91.70;;;;;;4181732;28;20037;-75
2022/05/01 06:42:44;;;;;;;0.00;0.00;;;12.10;91.60;;;;;;4150394;28;20120;-74
2022/05/01 06:45:07;;;;;;;0.00;0.00;;;12.10;91.60;;;;;;4168122;28;20083;-72
2022/05/01 06:47:30;;;;;;;0.00;0.00;;;12.10;91.50;;;;;;4154443;28;20064;-73
2022/05/01 06:49:52;;;;;;;0.00;0.00;;;12.10;91.60;;;;;;4168641;28;20053;-73
2022/05/01 06:52:25;;;;;;;0.00;0.00;;;12.10;91.70;;;;;;4168767;28;20056;-71
2022/05/01 06:54:47;;;;;;;0.00;0.00;;;12.10;91.80;;;;;;4179613;28;20177;-75
2022/05/01 06:57:11;;;;;;;0.00;0.00;;;12.00;91.80;;;;;;4157599;28;20042;-73
2022/05/01 06:59:35;;;;;;;0.00;0.00;;;11.90;91.80;;;;;;4137634;28;20057;-72
2022/05/01 07:01:59;;;;;;;0.00;0.00;;;11.90;91.80;;;;;;4151691;28;20049;-71
2022/05/01 07:04:21;;;;;;;0.00;0.00;;;12.00;91.80;;;;;;4153222;28;20046;-75
2022/05/01 07:06:46;;;;;;;0.00;0.00;;;12.00;91.90;;;;;;4184347;28;20044;-72
2022/05/01 07:09:11;;;;;;;0.00;0.00;;;12.00;91.70;;;;;;4184497;28;20114;-74
2022/05/01 07:11:35;;;;;;;0.00;0.00;;;12.10;91.60;;;;;;4184159;28;20052;-72
2022/05/01 07:14:02;;;;;;;0.00;0.00;;;12.00;91.60;;;;;;4170501;28;20089;-73
2022/05/01 07:16:26;;;;;;;0.00;0.00;;;12.10;91.70;;;;;;4184171;28;20412;-76
2022/05/01 07:18:50;;;;;;;0.00;0.00;;;12.30;91.60;;;;;;4184139;28;20131;-74
2022/05/01 07:21:12;;;;;;;0.00;0.00;;;12.50;91.40;;;;;;4168640;28;20497;-74
2022/05/01 07:23:34;;;;;;;0.00;0.00;;;12.60;91.20;;;;;;4154222;28;20041;-72
2022/05/01 07:26:01;;;;;;;0.00;0.00;;;12.60;91.10;;;;;;4181606;28;20368;-75
2022/05/01 07:28:30;;;;;;;0.00;0.00;;;12.80;90.90;;;;;;4154096;28;20435;-72
2022/05/01 07:30:54;;;;;;;0.00;0.00;;;12.90;90.90;;;;;;4167282;28;20499;-74
2022/05/01 07:33:16;;;;;;;0.00;0.00;;;13.10;90.90;;;;;;4159500;28;20168;-74
2022/05/01 07:35:40;;;;;;;0.00;0.00;;;13.20;90.80;;;;;;4167166;28;20458;-74
2022/05/01 07:38:04;;;;;;;0.00;0.00;;;13.30;90.70;;;;;;4164747;28;20045;-73
2022/05/01 07:40:29;;;;;;;0.00;0.00;;;13.50;90.60;;;;;;4165925;28;20044;-72
2022/05/01 07:42:54;;;;;;;0.00;0.00;;;13.70;90.40;;;;;;4164609;28;20488;-74
2022/05/01 07:45:18;;;;;;;0.00;0.00;;;13.80;90.00;;;;;;4180838;28;20045;-72
2022/05/01 07:47:40;;;;;;;0.00;0.00;;;13.60;90.00;;;;;;4167180;28;20126;-72
2022/05/01 07:50:02;;;;;;;0.00;0.00;;;13.80;90.30;;;;;;4167362;28;20049;-73
2022/05/01 07:52:29;;;;;;;0.00;0.00;;;14.20;90.00;;;;;;4153592;28;20046;-73
2022/05/01 07:54:51;;;;;;;0.00;0.00;;;14.50;88.90;;;;;;4167134;28;20415;-76
2022/05/01 07:57:13;;;;;;;0.00;0.00;;;14.40;87.90;;;;;;4139825;28;20123;-73
2022/05/01 07:59:35;;;;;;;0.00;0.00;;;14.40;87.90;;;;;;4167095;28;20508;-73
2022/05/01 08:01:57;;;;;;;0.00;0.00;;;14.50;87.90;;;;;;4167112;28;20472;-72
2022/05/01 08:04:30;;;;;;;0.00;0.00;;;14.80;87.20;;;;;;4166992;28;20041;-74
2022/05/01 08:06:54;;;;;;;0.00;0.00;;;14.90;86.70;;;;;;4166794;28;20041;-71
2022/05/01 08:09:16;;;;;;;0.00;0.00;;;15.10;86.40;;;;;;4166991;28;20049;-73
2022/05/01 08:11:42;;;;;;;0.00;0.00;;;15.10;86.10;;;;;;4153374;28;20034;-74
2022/05/01 08:14:04;;;;;;;0.00;0.00;;;15.30;85.60;;;;;;4166646;28;20099;-73
2022/05/01 08:16:26;;;;;;;0.00;0.00;;;15.40;85.20;;;;;;4166670;28;20045;-75
2022/05/01 08:21:35;;;;;;;0.00;0.00;;;15.60;85.10;;;;;;4163995;28;20137;-74
2022/05/01 08:24:03;;;;;;;0.00;0.00;;;15.80;84.00;;;;;;4163944;28;20045;-73
2022/05/01 08:26:27;;;;;;;0.00;0.00;;;15.80;82.90;;;;;;4150498;28;20048;-74
2022/05/01 08:28:57;;;;;;;0.00;0.00;;;15.90;83.00;;;;;;4150463;28;20038;-74
2022/05/01 08:31:19;;;;;;;0.00;0.00;;;15.80;83.10;;;;;;4150132;28;20667;-74
2022/05/01 08:33:46;;;;;;;0.00;0.00;;;16.10;83.40;;;;;;4136398;28;20144;-73
2022/05/01 08:36:10;;;;;;;0.00;0.00;;;16.10;82.80;;;;;;4149894;28;20058;-74
2022/05/01 08:38:36;;;;;;;0.00;0.00;;;16.20;82.90;;;;;;4178474;28;20456;-72
2022/05/01 08:40:38;;;;;;;0.00;0.00;;;15.90;82.00;;;;;;4176484;28;20064;-72
2022/05/01 08:43:02;;;;;;;0.00;0.00;;;15.80;82.50;;;;;;4154167;28;20049;-73
2022/05/01 08:45:28;;;;;;;0.00;0.00;;;15.50;82.00;;;;;;4175086;28;20052;-72
2022/05/01 08:47:55;;;;;;;0.00;0.00;;;15.50;81.50;;;;;;4184700;28;20110;-73
2022/05/01 08:50:52;;;;;;;0.00;0.00;;;15.70;80.80;;;;;;4168259;28;20068;-72
2022/05/01 08:53:17;;;;;;;0.00;0.00;;;15.80;80.90;;;;;;4167842;28;20049;-69
2022/05/01 08:55:43;;;;;;;0.00;0.00;;;15.80;81.10;;;;;;4169576;28;20071;-71
2022/05/01 08:58:10;;;;;;;0.00;0.00;;;16.00;80.60;;;;;;4169546;28;20079;-73
2022/05/01 09:00:32;;;;;;;0.00;0.00;;;16.20;80.30;;;;;;4169340;28;20057;-73
2022/05/01 09:03:01;;;;;;;0.00;0.00;;;16.40;79.80;;;;;;4180078;28;20055;-70
2022/05/01 09:05:59;;;;;;;0.00;0.00;;;16.60;79.60;;;;;;4169797;28;20055;-70
2022/05/01 09:08:04;;;;;;;0.00;0.00;;;16.80;78.60;;;;;;4183188;28;20484;-74
2022/05/01 09:10:13;;;;;;;0.00;0.00;;;16.80;78.70;;;;;;4159244;28;20057;-74
2022/05/01 09:12:53;;;;;;;0.00;0.00;;;16.90;78.50;;;;;;4166795;28;20096;-73
2022/05/01 09:15:33;;;;;;;0.00;0.00;;;17.10;78.00;;;;;;4170016;28;20506;-72
2022/05/01 09:18:09;;;;;;;0.00;0.00;;;16.70;77.60;;;;;;4168952;28;20045;-72
2022/05/01 09:20:36;;;;;;;0.00;0.00;;;16.40;78.40;;;;;;4177096;28;20599;-73
2022/05/01 09:23:01;;;;;;;0.00;0.00;;;16.50;78.40;;;;;;4169611;28;20132;-72
2022/05/01 09:25:27;;;;;;;0.00;0.00;;;16.50;77.70;;;;;;4169361;28;20107;-72
2022/05/01 09:27:52;;;;;;;0.00;0.00;;;16.60;78.30;;;;;;4170471;28;20087;-74
2022/05/01 09:30:23;;;;;;;0.00;0.00;;;16.80;76.60;;;;;;4169430;28;20046;-72
2022/05/01 09:32:49;;;;;;;0.00;0.00;;;16.70;75.80;;;;;;4176678;28;20041;-71
2022/05/01 09:35:29;;;;;;;0.00;0.00;;;16.60;76.20;;;;;;4185948;28;20079;-74
2022/05/01 09:38:09;;;;;;;0.00;0.00;;;16.80;75.70;;;;;;4162104;28;20045;-74
2022/05/01 09:40:33;;;;;;;0.00;0.00;;;16.90;74.60;;;;;;4168568;28;20577;-71
2022/05/01 09:42:55;;;;;;;0.00;0.00;;;16.90;75.00;;;;;;4167752;28;20072;-71
2022/05/01 09:45:32;;;;;;;0.00;0.00;;;17.00;75.00;;;;;;4165563;28;20065;-73
2022/05/01 09:48:21;;;;;;;0.00;0.00;;;16.90;75.00;;;;;;4152073;28;20137;-73
2022/05/01 09:50:47;;;;;;;0.00;0.00;;;17.00;74.40;;;;;;4166284;28;20046;-68
2022/05/01 09:53:13;;;;;;;0.00;0.00;;;17.00;74.00;;;;;;4151032;28;20040;-70
2022/05/01 09:55:39;;;;;;;0.00;0.00;;;16.90;74.50;;;;;;4162341;28;20353;-73
2022/05/01 09:58:04;;;;;;;0.00;0.00;;;17.20;74.10;;;;;;4153486;28;20103;-70
2022/05/01 10:00:46;;;;;;;0.00;0.00;;;17.10;74.30;;;;;;4143663;28;20053;-73
2022/05/01 10:03:26;;;;;;;0.00;0.00;;;17.10;75.10;;;;;;4141083;28;20097;-74
2022/05/01 10:05:50;;;;;;;0.00;0.00;;;17.20;75.10;;;;;;4167556;28;20041;-72
2022/05/01 10:08:13;;;;;;;0.00;0.00;;;17.30;74.80;;;;;;4153860;28;20141;-71
2022/05/01 10:10:43;;;;;;;0.00;0.00;;;17.10;75.60;;;;;;4166675;28;20698;-72
2022/05/01 10:13:10;;;;;;;0.00;0.00;;;17.30;75.70;;;;;;4168460;28;20095;-74
2022/05/01 10:15:53;;;;;;;0.00;0.00;;;17.10;74.60;;;;;;4151572;28;20042;-74
2022/05/01 10:18:16;;;;;;;0.00;0.00;;;17.00;74.80;;;;;;4156760;28;20492;-73
2022/05/01 10:20:41;;;;;;;0.00;0.00;;;17.20;75.20;;;;;;4168190;28;20116;-73
2022/05/01 10:23:03;;;;;;;0.00;0.00;;;17.40;74.70;;;;;;4154473;28;20065;-72
2022/05/01 10:25:34;;;;;;;0.00;0.00;;;17.30;74.90;;;;;;4154113;28;20061;-72
2022/05/01 10:28:22;;;;;;;0.00;0.00;;;17.40;75.20;;;;;;4154052;28;20054;-71
2022/05/01 10:34:22;;;;;;;0.00;0.00;;;17.70;73.40;;;;;;4168117;28;20611;-73
2022/05/01 10:36:53;;;;;;;0.00;0.00;;;17.80;73.60;;;;;;4135912;28;20049;-73
2022/05/01 10:39:23;;;;;;;0.00;0.00;;;17.90;73.30;;;;;;4168084;28;20127;-73
2022/05/01 10:41:47;;;;;;;0.00;0.00;;;18.00;72.80;;;;;;4168382;28;20049;-74
2022/05/01 10:44:30;;;;;;;0.00;0.00;;;17.80;72.40;;;;;;4154428;28;20072;-71
2022/05/01 10:46:54;;;;;;;0.00;0.00;;;17.80;73.00;;;;;;4167881;28;20037;-72
2022/05/01 10:49:34;;;;;;;0.00;0.00;;;18.00;72.90;;;;;;4167868;28;20041;-72
2022/05/01 10:52:30;;;;;;;0.00;0.00;;;17.90;71.40;;;;;;4127244;28;20054;-73
2022/05/01 10:55:05;;;;;;;0.00;0.00;;;17.80;72.40;;;;;;4154641;28;20094;-73
2022/05/01 10:57:27;;;;;;;0.00;0.00;;;17.80;71.50;;;;;;4153806;28;20153;-74
2022/05/01 11:00:05;;;;;;;0.00;0.00;;;18.10;71.00;;;;;;4153037;28;20064;-70
2022/05/01 11:02:32;;;;;;;0.00;0.00;;;18.30;70.60;;;;;;4150919;28;20112;-72
2022/05/01 11:04:55;;;;;;;0.00;0.00;;;18.20;70.00;;;;;;4137548;28;20429;-73
2022/05/01 11:07:18;;;;;;;0.00;0.00;;;18.30;70.40;;;;;;4136999;28;20137;-72
2022/05/01 11:09:47;;;;;;;0.00;0.00;;;18.20;69.80;;;;;;4150712;28;20111;-73
2022/05/01 11:12:11;;;;;;;0.00;0.00;;;18.10;71.00;;;;;;4137391;28;20054;-70
2022/05/01 11:14:58;;;;;;;0.00;0.00;;;18.40;70.10;;;;;;4151037;28;20132;-74
2022/05/01 11:17:42;;;;;;;0.00;0.00;;;18.70;69.10;;;;;;4150693;28;20054;-72
2022/05/01 11:20:29;;;;;;;0.00;0.00;;;18.80;69.10;;;;;;4137376;28;20113;-72
2022/05/01 11:22:52;;;;;;;0.00;0.00;;;18.90;69.10;;;;;;4151032;28;20084;-73
2022/05/01 11:25:38;;;;;;;0.00;0.00;;;18.60;68.40;;;;;;4137250;28;20524;-71
2022/05/01 11:28:02;;;;;;;0.00;0.00;;;18.80;69.50;;;;;;4137350;28;20082;-72
2022/05/01 11:30:27;;;;;;;0.00;0.00;;;18.90;68.80;;;;;;4164630;28;20053;-74
2022/05/01 11:33:02;;;;;;;0.00;0.00;;;19.00;68.00;;;;;;4151224;28;20056;-73
2022/05/01 11:35:56;;;;;;;0.00;0.00;;;19.00;68.00;;;;;;4137558;28;20125;-74
2022/05/01 11:38:21;;;;;;;0.00;0.00;;;19.20;66.90;;;;;;4137260;28;20089;-70
2022/05/01 11:40:57;;;;;;;0.00;0.00;;;19.20;67.00;;;;;;4150558;28;20049;-73
2022/05/01 11:43:21;;;;;;;0.00;0.00;;;19.20;66.80;;;;;;4150550;28;20050;-71
2022/05/01 11:45:45;;;;;;;0.00;0.00;;;19.10;68.30;;;;;;4136854;28;20066;-72
2022/05/01 11:48:14;;;;;;;0.00;0.00;;;19.20;66.60;;;;;;4150611;28;20050;-72
2022/05/01 11:50:40;;;;;;;0.00;0.00;;;19.20;67.50;;;;;;4150516;28;20048;-73
2022/05/01 11:53:02;;;;;;;0.00;0.00;;;19.10;66.00;;;;;;4150659;28;20144;-71
2022/05/01 12:02:24;;;;;;;0.00;0.00;;;18.90;65.80;;;;;;4136762;28;20093;-73
2022/05/01 12:03:41;;;;;;;0.00;0.00;;;19.40;64.20;;;;;;4150306;28;20085;-74
2022/05/01 12:06:05;;;;;;;0.00;0.00;;;19.50;63.80;;;;;;4166776;28;20377;-73
2022/05/01 12:08:30;;;;;;;0.00;0.00;;;19.40;62.40;;;;;;4166601;28;20049;-72
2022/05/01 12:10:56;;;;;;;0.00;0.00;;;19.50;62.90;;;;;;4166593;28;20111;-74
2022/05/01 12:13:30;;;;;;;0.00;0.00;;;19.40;62.60;;;;;;4166412;28;20049;-71
2022/05/01 12:15:52;;;;;;;0.00;0.00;;;19.30;62.60;;;;;;4153244;28;20551;-73
2022/05/01 12:18:18;;;;;;;0.00;0.00;;;19.20;62.90;;;;;;4166266;28;20324;-71
2022/05/01 12:20:44;;;;;;;0.00;0.00;;;19.40;63.10;;;;;;4153125;28;20116;-72
2022/05/01 12:23:18;;;;;;;0.00;0.00;;;19.50;62.50;;;;;;4139542;28;20060;-72
2022/05/01 12:25:50;;;;;;;0.00;0.00;;;19.60;62.70;;;;;;4139645;28;20041;-75
2022/05/01 12:28:15;;;;;;;0.00;0.00;;;19.70;62.00;;;;;;4152604;28;20054;-72
2022/05/01 12:30:40;;;;;;;0.00;0.00;;;19.80;62.30;;;;;;4152951;28;20038;-72
2022/05/01 12:33:05;;;;;;;0.00;0.00;;;19.60;62.40;;;;;;4152721;28;20046;-72
2022/05/01 12:35:29;;;;;;;0.00;0.00;;;19.70;63.40;;;;;;4166852;28;20076;-70
2022/05/01 12:37:54;;;;;;;0.00;0.00;;;19.60;63.50;;;;;;4166655;28;20076;-74
2022/05/01 12:45:53;;;;;;;0.00;0.00;;;19.60;62.80;;;;;;4170466;28;20057;-73
2022/05/01 12:48:21;;;;;;;0.00;0.00;;;19.60;63.70;;;;;;4166648;28;20049;-75
2022/05/01 12:50:45;;;;;;;0.00;0.00;;;19.70;63.10;;;;;;4139356;28;20068;-74
2022/05/01 12:53:24;;;;;;;0.00;0.00;;;20.00;62.90;;;;;;4166053;28;20164;-73
2022/05/01 12:55:49;;;;;;;0.00;0.00;;;19.90;61.50;;;;;;4166247;28;20099;-69
2022/05/01 12:58:13;;;;;;;0.00;0.00;;;20.00;61.30;;;;;;4163545;28;20362;-70
2022/05/01 13:00:37;;;;;;;0.00;0.00;;;20.00;61.30;;;;;;4165093;28;20065;-71
2022/05/01 13:03:17;;;;;;;0.00;0.00;;;19.80;61.90;;;;;;4166145;28;20061;-72
2022/05/01 13:05:43;;;;;;;0.00;0.00;;;19.80;62.90;;;;;;4166123;28;20412;-71
2022/05/01 13:08:24;;;;;;;0.00;0.00;;;19.90;62.10;;;;;;4152526;28;20037;-73
2022/05/01 13:11:14;;;;;;;0.00;0.00;;;20.10;60.70;;;;;;4152482;28;20046;-70
2022/05/01 13:13:47;;;;;;;0.00;0.00;;;20.10;60.20;;;;;;4166391;28;20046;-71
2022/05/01 13:16:10;;;;;;;0.00;0.00;;;20.20;60.30;;;;;;4180532;28;20052;-71
2022/05/01 13:18:32;;;;;;;0.00;0.00;;;20.20;61.20;;;;;;4153169;28;20447;-72
2022/05/01 13:20:54;;;;;;;0.00;0.00;;;20.10;61.90;;;;;;4167004;28;20042;-73